Time;durP1;ratioP1;P1;durP2;ratioP2;P2;SDS_P1;SDS_P2;PMS_P1;PMS_P2;Temp;Humidity;BMP_temperature;BMP_pressure;BME280_temperature;BME280_humidity;BME280_pressure;Samples;Min_cycle;Max_cycle;Signal;HPM_P1;HPM_P2
2020/12/30 00:01:24;;;;;;;3.15;1.77;;;5.10;99.90;;;;;;5061725;28;20278;-71
2020/12/30 00:03:51;;;;;;;3.05;1.40;;;5.10;99.90;;;;;;5062866;28;20291;-72
2020/12/30 00:06:17;;;;;;;1.48;1.38;;;5.20;99.90;;;;;;5063327;28;20199;-73
2020/12/30 00:08:44;;;;;;;1.30;1.20;;;5.30;99.90;;;;;;5061564;28;20200;-73
2020/12/30 00:11:11;;;;;;;1.38;1.23;;;5.30;99.90;;;;;;5062800;28;20201;-73
2020/12/30 00:13:37;;;;;;;2.40;1.20;;;5.30;99.90;;;;;;5063299;28;20286;-73
2020/12/30 00:16:04;;;;;;;1.10;1.00;;;5.30;99.90;;;;;;5061487;28;20286;-73
2020/12/30 00:18:31;;;;;;;1.30;1.13;;;5.40;99.90;;;;;;5062702;28;20306;-73
2020/12/30 00:20:57;;;;;;;2.40;1.50;;;5.40;99.90;;;;;;5063079;28;20284;-74
2020/12/30 00:23:23;;;;;;;1.15;1.05;;;5.40;99.90;;;;;;5061308;28;20290;-74
2020/12/30 00:25:51;;;;;;;1.10;1.00;;;5.50;99.90;;;;;;5062501;28;20340;-74
2020/12/30 00:28:17;;;;;;;1.10;1.00;;;5.60;99.90;;;;;;5062797;28;20229;-71
2020/12/30 00:30:45;;;;;;;0.85;0.85;;;5.60;99.90;;;;;;5060968;28;20865;-71
2020/12/30 00:33:13;;;;;;;1.80;1.25;;;5.70;99.90;;;;;;5062280;28;20282;-70
2020/12/30 00:35:39;;;;;;;1.33;1.23;;;5.70;99.90;;;;;;5062691;28;20569;-70
2020/12/30 00:38:05;;;;;;;1.83;1.52;;;5.70;99.90;;;;;;5055063;28;20302;-69
2020/12/30 00:40:32;;;;;;;2.20;1.70;;;5.70;99.90;;;;;;5062054;28;20847;-70
2020/12/30 00:42:59;;;;;;;1.73;1.48;;;5.70;99.90;;;;;;5062729;28;20283;-69
2020/12/30 00:45:25;;;;;;;2.97;1.85;;;5.60;99.90;;;;;;5060935;28;20191;-68
2020/12/30 00:47:51;;;;;;;1.42;1.23;;;5.50;99.90;;;;;;5061912;28;20214;-70
2020/12/30 00:50:18;;;;;;;1.90;1.70;;;5.40;99.90;;;;;;5062457;28;20227;-69
2020/12/30 00:52:44;;;;;;;2.25;1.58;;;5.30;99.90;;;;;;5060528;28;20191;-67
2020/12/30 00:55:12;;;;;;;2.72;1.77;;;5.30;99.90;;;;;;5062354;28;20305;-68
2020/12/30 00:57:38;;;;;;;2.38;1.77;;;5.30;99.90;;;;;;5062491;28;20226;-67
2020/12/30 01:00:06;;;;;;;2.53;1.58;;;5.30;99.90;;;;;;5060436;28;20196;-67
2020/12/30 01:02:32;;;;;;;2.33;1.80;;;5.20;99.90;;;;;;5061628;28;20205;-67
2020/12/30 01:04:58;;;;;;;2.15;1.63;;;5.10;99.90;;;;;;5062222;28;20249;-67
2020/12/30 01:07:25;;;;;;;1.17;1.10;;;5.20;99.90;;;;;;5060014;28;20225;-67
2020/12/30 01:09:51;;;;;;;2.25;1.63;;;5.20;99.90;;;;;;5061684;28;20229;-67
2020/12/30 01:12:17;;;;;;;5.15;1.55;;;5.20;99.90;;;;;;5061934;28;20366;-69
2020/12/30 01:14:43;;;;;;;1.92;1.30;;;5.20;99.90;;;;;;5060274;28;20199;-67
2020/12/30 01:17:11;;;;;;;3.05;1.60;;;5.30;99.90;;;;;;5061575;28;20604;-67
2020/12/30 01:19:37;;;;;;;2.17;1.73;;;5.20;99.90;;;;;;5061531;28;20202;-70
2020/12/30 01:22:03;;;;;;;3.30;1.60;;;5.20;99.90;;;;;;5059959;28;20316;-69
2020/12/30 01:24:30;;;;;;;1.98;1.10;;;5.20;99.90;;;;;;5059703;28;20221;-72
2020/12/30 01:26:56;;;;;;;1.40;1.30;;;5.10;99.90;;;;;;5052495;28;20314;-67
2020/12/30 01:29:23;;;;;;;1.10;1.00;;;5.10;99.90;;;;;;5052352;28;20223;-68
2020/12/30 01:31:49;;;;;;;1.45;1.30;;;4.90;99.90;;;;;;5052394;28;20687;-68
2020/12/30 01:34:16;;;;;;;2.55;1.52;;;4.90;99.90;;;;;;5051704;28;20306;-68
2020/12/30 01:36:42;;;;;;;1.88;1.27;;;4.90;99.90;;;;;;5052186;28;20219;-70
2020/12/30 01:39:09;;;;;;;2.20;1.00;;;5.00;99.90;;;;;;5052566;28;20207;-70
2020/12/30 01:41:35;;;;;;;1.30;1.20;;;5.00;99.90;;;;;;5052529;28;20294;-70
2020/12/30 01:44:03;;;;;;;2.65;1.83;;;5.00;99.90;;;;;;5052287;28;20625;-70
2020/12/30 01:46:35;;;;;;;1.58;1.48;;;5.10;99.90;;;;;;5052115;28;20213;-69
2020/12/30 01:49:02;;;;;;;1.95;1.25;;;5.10;99.90;;;;;;5051986;28;20294;-69
2020/12/30 01:51:29;;;;;;;2.65;1.45;;;5.10;99.90;;;;;;5052467;28;20294;-70
2020/12/30 01:53:56;;;;;;;1.10;1.02;;;5.20;99.90;;;;;;5052160;28;20208;-70
2020/12/30 01:56:27;;;;;;;1.75;1.45;;;5.20;99.90;;;;;;5052029;28;20214;-66
2020/12/30 01:58:53;;;;;;;1.48;1.05;;;5.20;99.90;;;;;;5052076;28;20310;-68
2020/12/30 02:01:22;;;;;;;2.10;1.35;;;5.30;99.90;;;;;;5052075;28;20214;-68
2020/12/30 02:03:52;;;;;;;1.90;1.27;;;5.30;99.90;;;;;;5052104;28;20252;-68
2020/12/30 02:06:18;;;;;;;2.03;1.58;;;5.30;99.90;;;;;;5052055;28;20586;-69
2020/12/30 02:08:46;;;;;;;1.40;1.20;;;5.30;99.90;;;;;;5051936;28;20210;-68
2020/12/30 02:11:13;;;;;;;3.13;1.40;;;5.40;99.90;;;;;;5052134;28;20204;-68
2020/12/30 02:13:39;;;;;;;1.85;1.50;;;5.40;99.90;;;;;;5051931;28;20208;-67
2020/12/30 02:16:05;;;;;;;1.83;1.20;;;5.40;99.90;;;;;;5051866;28;20634;-69
2020/12/30 02:18:32;;;;;;;1.25;1.15;;;5.50;99.90;;;;;;5051675;28;20314;-66
2020/12/30 02:20:58;;;;;;;2.15;1.10;;;5.60;99.90;;;;;;5052052;28;20210;-68
2020/12/30 02:23:25;;;;;;;1.27;1.10;;;5.60;99.90;;;;;;5051985;28;20207;-68
2020/12/30 02:25:53;;;;;;;1.42;1.10;;;5.60;99.90;;;;;;5051700;28;20203;-68
2020/12/30 02:28:19;;;;;;;2.17;1.33;;;5.60;99.90;;;;;;5051705;28;20269;-68
2020/12/30 02:30:45;;;;;;;1.17;1.05;;;5.60;99.90;;;;;;5051820;28;20226;-69
2020/12/30 02:33:11;;;;;;;2.35;0.95;;;5.70;99.90;;;;;;5051681;28;20290;-69
2020/12/30 02:35:38;;;;;;;1.80;1.52;;;5.70;99.90;;;;;;5051786;28;20294;-69
2020/12/30 02:38:04;;;;;;;1.52;1.17;;;5.70;99.90;;;;;;5051896;28;20680;-69
2020/12/30 02:40:30;;;;;;;1.48;1.38;;;5.80;99.90;;;;;;5051547;28;20195;-68
2020/12/30 02:42:57;;;;;;;1.35;1.20;;;5.80;99.90;;;;;;5051761;28;20294;-69
2020/12/30 02:45:24;;;;;;;1.98;1.50;;;5.70;99.90;;;;;;5052282;28;20211;-69
2020/12/30 02:47:50;;;;;;;1.20;1.10;;;5.70;99.90;;;;;;5055357;28;20231;-69
2020/12/30 02:50:17;;;;;;;1.65;1.20;;;5.60;99.90;;;;;;5055418;28;20257;-69
2020/12/30 02:52:43;;;;;;;1.95;1.67;;;5.60;99.90;;;;;;5055379;28;20214;-69
2020/12/30 02:55:09;;;;;;;2.25;0.95;;;5.60;99.90;;;;;;5055376;28;20208;-68
2020/12/30 02:57:35;;;;;;;2.15;1.30;;;5.60;99.90;;;;;;5057938;28;20309;-67
2020/12/30 03:00:03;;;;;;;1.10;0.93;;;5.60;99.90;;;;;;5063728;28;20329;-67
2020/12/30 03:02:29;;;;;;;2.08;1.25;;;5.60;99.90;;;;;;5065373;28;20251;-67
2020/12/30 03:04:56;;;;;;;1.30;1.02;;;5.60;99.90;;;;;;5065589;28;20202;-66
2020/12/30 03:07:22;;;;;;;2.40;1.52;;;5.70;99.90;;;;;;5066326;28;20297;-66
2020/12/30 03:09:48;;;;;;;1.38;0.85;;;5.70;99.90;;;;;;5064162;28;20308;-66
2020/12/30 03:12:15;;;;;;;0.68;0.68;;;5.70;99.90;;;;;;5064444;28;20290;-67
2020/12/30 03:14:42;;;;;;;2.75;1.23;;;5.70;99.90;;;;;;5066021;28;20209;-67
2020/12/30 03:17:09;;;;;;;0.80;0.70;;;5.70;99.90;;;;;;5063898;28;20317;-65
2020/12/30 03:19:35;;;;;;;0.98;0.98;;;5.70;99.90;;;;;;5067280;28;20332;-65
2020/12/30 03:22:02;;;;;;;1.08;0.98;;;5.80;99.90;;;;;;5064582;28;20195;-65
2020/12/30 03:24:28;;;;;;;1.38;0.98;;;5.80;99.90;;;;;;5063914;28;20230;-66
2020/12/30 03:26:54;;;;;;;0.82;0.60;;;5.80;99.90;;;;;;5062999;28;20309;-65
2020/12/30 03:29:20;;;;;;;1.95;0.70;;;5.80;99.90;;;;;;5065136;28;20237;-65
2020/12/30 03:31:47;;;;;;;1.45;1.05;;;5.90;99.90;;;;;;5065048;28;20195;-65
2020/12/30 03:34:14;;;;;;;2.63;1.25;;;5.90;99.90;;;;;;5063617;28;20594;-65
2020/12/30 03:36:40;;;;;;;1.48;0.95;;;5.90;99.90;;;;;;5065879;28;20210;-66
2020/12/30 03:39:07;;;;;;;1.10;1.00;;;5.90;99.90;;;;;;5063837;28;20194;-66
2020/12/30 03:41:33;;;;;;;2.45;1.50;;;5.90;99.90;;;;;;5065362;28;20294;-65
2020/12/30 03:43:59;;;;;;;0.95;0.75;;;5.90;99.90;;;;;;5064074;28;20286;-66
2020/12/30 03:46:26;;;;;;;1.15;1.00;;;5.90;99.90;;;;;;5064008;28;20201;-64
2020/12/30 03:48:52;;;;;;;2.10;0.95;;;5.90;99.90;;;;;;5062819;28;20297;-65
2020/12/30 03:51:19;;;;;;;0.82;0.77;;;5.90;99.90;;;;;;5064691;28;20262;-64
2020/12/30 03:53:45;;;;;;;2.60;0.90;;;6.00;99.90;;;;;;5064272;28;20196;-65
2020/12/30 03:56:12;;;;;;;1.65;0.95;;;6.00;99.90;;;;;;5062463;28;20290;-66
2020/12/30 03:58:38;;;;;;;1.52;1.00;;;6.00;99.90;;;;;;5065949;28;20219;-65
2020/12/30 04:01:04;;;;;;;1.27;1.00;;;6.00;99.90;;;;;;5064065;28;20190;-71
2020/12/30 04:03:31;;;;;;;1.90;0.80;;;5.90;99.90;;;;;;5060261;28;20222;-65
2020/12/30 04:05:57;;;;;;;3.00;1.30;;;5.90;99.90;;;;;;5055558;28;20257;-64
2020/12/30 04:08:24;;;;;;;2.90;1.70;;;5.90;99.90;;;;;;5056069;28;20611;-65
2020/12/30 04:10:51;;;;;;;1.55;0.93;;;5.90;99.90;;;;;;5055084;28;20216;-65
2020/12/30 04:13:17;;;;;;;5.03;2.90;;;5.90;99.90;;;;;;5055479;28;20289;-65
2020/12/30 04:15:46;;;;;;;1.17;1.00;;;5.80;99.90;;;;;;5055109;28;20683;-65
2020/12/30 04:18:12;;;;;;;1.63;1.00;;;5.80;99.90;;;;;;5055640;28;20264;-65
2020/12/30 04:20:39;;;;;;;1.52;0.95;;;5.80;99.90;;;;;;5055534;28;20673;-65
2020/12/30 04:23:05;;;;;;;1.00;0.90;;;5.80;99.90;;;;;;5055584;28;20209;-64
2020/12/30 04:25:32;;;;;;;2.00;1.10;;;5.80;99.90;;;;;;5054680;28;20716;-65
2020/12/30 04:27:59;;;;;;;1.33;0.95;;;5.70;99.90;;;;;;5054846;28;20239;-65
2020/12/30 04:30:25;;;;;;;0.95;0.90;;;5.70;99.90;;;;;;5055255;28;20234;-65
2020/12/30 04:32:51;;;;;;;1.02;0.68;;;5.80;99.90;;;;;;5055205;28;20200;-65
2020/12/30 04:35:19;;;;;;;1.60;1.20;;;5.80;99.90;;;;;;5055264;28;20646;-65
2020/12/30 04:37:45;;;;;;;1.40;1.02;;;5.80;99.90;;;;;;5054513;28;20592;-65
2020/12/30 04:40:11;;;;;;;0.70;0.63;;;5.70;99.90;;;;;;5054931;28;20199;-65
2020/12/30 04:42:39;;;;;;;1.73;1.17;;;5.70;99.90;;;;;;5054996;28;20205;-65
2020/12/30 04:45:08;;;;;;;1.35;1.20;;;5.70;99.90;;;;;;5054664;28;20215;-65
2020/12/30 04:47:35;;;;;;;1.27;1.20;;;5.60;99.90;;;;;;5054293;28;20708;-65
2020/12/30 04:50:03;;;;;;;2.92;1.60;;;5.60;99.90;;;;;;5055305;28;20266;-64
2020/12/30 04:52:29;;;;;;;1.45;1.10;;;5.60;99.90;;;;;;5054619;28;20211;-65
2020/12/30 04:54:56;;;;;;;1.45;0.88;;;5.60;99.90;;;;;;5054681;28;20210;-65
2020/12/30 04:57:57;;;;;;;2.80;0.82;;;5.60;99.90;;;;;;5054637;28;20223;-65
2020/12/30 05:00:24;;;;;;;0.98;0.82;;;5.60;99.90;;;;;;5054905;28;20199;-65
2020/12/30 05:02:53;;;;;;;1.38;0.80;;;5.50;99.90;;;;;;5054808;28;20210;-65
2020/12/30 05:05:20;;;;;;;1.20;0.70;;;5.60;99.90;;;;;;5054494;28;20214;-65
2020/12/30 05:07:47;;;;;;;0.63;0.60;;;5.60;99.90;;;;;;5053575;28;20693;-65
2020/12/30 05:10:15;;;;;;;1.95;0.93;;;5.60;99.90;;;;;;5054177;28;20224;-65
2020/12/30 05:12:41;;;;;;;1.85;1.00;;;5.60;99.90;;;;;;5054632;28;20211;-65
2020/12/30 05:15:08;;;;;;;1.38;1.00;;;5.60;99.90;;;;;;5054168;28;20207;-65
2020/12/30 05:17:35;;;;;;;1.65;1.00;;;5.70;99.90;;;;;;5053750;28;20310;-65
2020/12/30 05:20:02;;;;;;;1.00;0.90;;;5.70;99.90;;;;;;5054056;28;20205;-65
2020/12/30 05:22:28;;;;;;;1.30;1.10;;;5.70;99.90;;;;;;5054301;28;20653;-65
2020/12/30 05:24:54;;;;;;;1.85;1.00;;;5.70;99.90;;;;;;5054326;28;20228;-65
2020/12/30 05:27:21;;;;;;;0.95;0.95;;;5.70;99.90;;;;;;5053387;28;20635;-65
2020/12/30 05:29:49;;;;;;;0.80;0.80;;;5.70;99.90;;;;;;5054248;28;20681;-64
2020/12/30 05:32:16;;;;;;;0.90;0.90;;;5.70;99.90;;;;;;5053775;28;20200;-65
2020/12/30 05:34:43;;;;;;;6.28;1.30;;;5.60;99.90;;;;;;5053842;28;20205;-65
2020/12/30 05:37:11;;;;;;;1.40;1.15;;;5.60;99.90;;;;;;5053417;28;20730;-65
2020/12/30 05:39:37;;;;;;;2.55;1.80;;;5.60;99.90;;;;;;5054122;28;20211;-65
2020/12/30 05:42:11;;;;;;;0.68;0.68;;;5.60;99.90;;;;;;5054181;28;20557;-65
2020/12/30 05:44:37;;;;;;;2.42;1.20;;;5.50;99.90;;;;;;5053800;28;20226;-65
2020/12/30 05:47:14;;;;;;;0.95;0.90;;;5.40;99.90;;;;;;5053762;28;20299;-65
2020/12/30 05:49:42;;;;;;;1.23;0.90;;;5.40;99.90;;;;;;5053860;28;20237;-65
2020/12/30 05:52:13;;;;;;;2.55;0.95;;;5.40;99.90;;;;;;5053667;28;20203;-65
2020/12/30 05:54:39;;;;;;;1.10;1.00;;;5.40;99.90;;;;;;5054038;28;20229;-65
2020/12/30 05:57:26;;;;;;;1.30;0.85;;;5.30;99.90;;;;;;5053130;28;20219;-65
2020/12/30 05:59:55;;;;;;;3.10;1.42;;;5.10;99.90;;;;;;5053798;28;20199;-65
2020/12/30 06:02:29;;;;;;;1.23;0.75;;;5.10;99.90;;;;;;5053709;28;20203;-65
2020/12/30 06:05:08;;;;;;;0.82;0.50;;;5.10;99.90;;;;;;5053907;28;20666;-65
2020/12/30 06:07:37;;;;;;;1.75;0.73;;;5.10;99.90;;;;;;5053160;28;20230;-65
2020/12/30 06:10:05;;;;;;;1.08;0.93;;;5.10;99.90;;;;;;5053342;28;20768;-65
2020/12/30 06:12:39;;;;;;;2.85;1.20;;;5.00;99.90;;;;;;5053513;28;20345;-65
2020/12/30 06:15:06;;;;;;;3.58;1.23;;;4.90;99.90;;;;;;5053734;28;20245;-65
2020/12/30 06:17:32;;;;;;;1.23;1.02;;;4.80;99.90;;;;;;5053058;28;20230;-64
2020/12/30 06:19:59;;;;;;;2.08;1.27;;;4.70;99.90;;;;;;5054852;28;20256;-65
2020/12/30 06:22:27;;;;;;;2.05;1.30;;;4.50;99.90;;;;;;5057589;28;20206;-65
2020/12/30 06:24:54;;;;;;;1.77;1.10;;;4.40;99.90;;;;;;5057428;28;20199;-65
2020/12/30 06:27:23;;;;;;;2.13;1.05;;;4.50;99.90;;;;;;5056968;28;20249;-65
2020/12/30 06:29:53;;;;;;;1.42;1.00;;;4.50;99.90;;;;;;5057890;28;20231;-65
2020/12/30 06:32:30;;;;;;;2.47;1.58;;;4.40;99.90;;;;;;5057732;28;20272;-65
2020/12/30 06:34:58;;;;;;;4.13;1.77;;;4.40;99.90;;;;;;5057393;28;20199;-64
2020/12/30 06:37:33;;;;;;;1.02;0.90;;;4.50;99.90;;;;;;5056962;28;20272;-64
2020/12/30 06:40:27;;;;;;;6.07;1.30;;;4.50;99.90;;;;;;5057385;28;20696;-65
2020/12/30 06:42:56;;;;;;;1.45;1.15;;;4.60;99.90;;;;;;5021962;28;20209;-64
2020/12/30 06:45:49;;;;;;;1.63;1.27;;;4.50;99.90;;;;;;5057117;28;20203;-64
2020/12/30 06:48:16;;;;;;;2.30;1.20;;;4.40;99.90;;;;;;5057424;28;20220;-65
2020/12/30 06:50:43;;;;;;;2.25;1.30;;;4.40;99.90;;;;;;5057162;28;20269;-65
2020/12/30 06:53:33;;;;;;;3.03;1.65;;;4.40;99.90;;;;;;5057327;28;20636;-64
2020/12/30 06:56:01;;;;;;;1.60;1.30;;;4.40;99.90;;;;;;5041486;28;20585;-65
2020/12/30 06:58:44;;;;;;;2.25;1.40;;;4.20;99.90;;;;;;5057193;28;20244;-65
2020/12/30 07:01:11;;;;;;;2.00;1.40;;;4.20;99.90;;;;;;5057110;28;20206;-64
2020/12/30 07:03:38;;;;;;;2.13;1.92;;;4.20;99.90;;;;;;5057078;28;20199;-64
2020/12/30 07:06:24;;;;;;;2.05;1.75;;;4.10;99.90;;;;;;5056316;28;20203;-65
2020/12/30 07:08:50;;;;;;;1.48;1.20;;;4.00;99.90;;;;;;5047265;28;20557;-64
2020/12/30 07:11:50;;;;;;;3.42;1.77;;;4.10;99.90;;;;;;5056639;28;20223;-65
2020/12/30 07:14:19;;;;;;;2.35;1.55;;;4.20;99.90;;;;;;4994986;28;20544;-65
2020/12/30 07:16:47;;;;;;;1.38;1.27;;;4.10;99.90;;;;;;5044388;28;20646;-65
2020/12/30 07:19:16;;;;;;;1.50;1.40;;;4.10;99.90;;;;;;5056529;28;20204;-65
2020/12/30 07:21:51;;;;;;;2.85;1.90;;;4.20;99.90;;;;;;5056688;28;20641;-65
2020/12/30 07:24:22;;;;;;;1.92;1.25;;;4.30;99.90;;;;;;5056714;28;20207;-65
2020/12/30 07:26:50;;;;;;;3.45;1.70;;;4.40;99.90;;;;;;5055836;28;20230;-65
2020/12/30 07:29:17;;;;;;;2.20;1.20;;;4.40;99.90;;;;;;5056440;28;20211;-65
2020/12/30 07:31:47;;;;;;;1.80;1.13;;;4.40;99.90;;;;;;5055400;28;20199;-65
2020/12/30 07:34:19;;;;;;;2.97;1.60;;;4.50;99.90;;;;;;5056510;28;20207;-65
2020/12/30 07:36:47;;;;;;;1.90;1.48;;;4.70;99.90;;;;;;5055765;28;20230;-65
2020/12/30 07:39:15;;;;;;;2.70;1.40;;;4.70;99.90;;;;;;5055808;28;20206;-65
2020/12/30 07:41:44;;;;;;;1.60;1.50;;;4.80;99.90;;;;;;5056108;28;20551;-65
2020/12/30 07:44:12;;;;;;;2.38;1.50;;;4.90;99.90;;;;;;5056436;28;20230;-65
2020/12/30 07:46:38;;;;;;;2.45;0.80;;;5.00;99.90;;;;;;5055588;28;20227;-65
2020/12/30 07:49:13;;;;;;;3.03;1.25;;;5.00;99.90;;;;;;5056521;28;20294;-65
2020/12/30 07:51:50;;;;;;;2.42;1.40;;;5.00;99.90;;;;;;5055509;28;20605;-64
2020/12/30 07:54:19;;;;;;;11.90;5.10;;;5.10;99.90;;;;;;5055723;28;20229;-65
2020/12/30 07:56:46;;;;;;;1.10;1.00;;;5.10;99.90;;;;;;5055597;28;20274;-64
2020/12/30 07:59:20;;;;;;;1.20;1.10;;;5.00;99.90;;;;;;5056183;28;20203;-65
2020/12/30 08:01:57;;;;;;;1.60;1.10;;;4.90;99.90;;;;;;5056067;28;20557;-65
2020/12/30 08:04:24;;;;;;;2.40;1.20;;;4.90;99.90;;;;;;5055694;28;20207;-65
2020/12/30 08:06:50;;;;;;;1.00;1.00;;;5.00;99.90;;;;;;5055270;28;20296;-65
2020/12/30 08:09:17;;;;;;;1.23;1.00;;;5.00;99.90;;;;;;5055627;28;20743;-65
2020/12/30 08:11:51;;;;;;;1.73;1.30;;;5.10;99.90;;;;;;5055689;28;20227;-65
2020/12/30 08:14:19;;;;;;;2.25;1.38;;;5.20;99.90;;;;;;5055864;28;20207;-65
2020/12/30 08:16:51;;;;;;;3.17;1.67;;;5.30;99.90;;;;;;5055157;28;20299;-65
2020/12/30 08:19:38;;;;;;;4.60;1.60;;;5.40;99.90;;;;;;5055255;28;20211;-65
2020/12/30 08:22:10;;;;;;;2.28;1.50;;;5.50;99.90;;;;;;5055561;28;20348;-65
2020/12/30 08:24:39;;;;;;;1.60;0.90;;;5.70;99.90;;;;;;5055651;28;20207;-65
2020/12/30 08:27:06;;;;;;;2.30;1.52;;;5.80;99.90;;;;;;5054680;28;20239;-65
2020/12/30 08:29:34;;;;;;;2.95;1.98;;;5.90;99.90;;;;;;5054958;28;20751;-65
2020/12/30 08:32:05;;;;;;;2.90;1.80;;;5.90;99.90;;;;;;5055081;28;20203;-65
2020/12/30 08:34:41;;;;;;;2.80;1.67;;;5.80;99.90;;;;;;5055306;28;20211;-65
2020/12/30 08:37:11;;;;;;;1.02;0.95;;;5.70;99.90;;;;;;5054605;28;20558;-64
2020/12/30 08:39:45;;;;;;;1.10;0.80;;;5.80;99.90;;;;;;5055202;28;20257;-65
2020/12/30 08:42:50;;;;;;;1.80;1.10;;;5.70;99.90;;;;;;5054800;28;20198;-64
2020/12/30 08:45:21;;;;;;;0.85;0.77;;;5.80;99.90;;;;;;5047594;28;20211;-65
2020/12/30 08:47:52;;;;;;;1.80;1.13;;;5.90;99.90;;;;;;5054255;28;20231;-65
2020/12/30 08:50:21;;;;;;;1.90;1.00;;;5.90;99.90;;;;;;5054511;28;20223;-65
2020/12/30 08:52:47;;;;;;;2.20;1.10;;;6.00;99.90;;;;;;5054830;28;20210;-65
2020/12/30 08:55:15;;;;;;;2.10;0.85;;;6.10;99.90;;;;;;5054873;28;20203;-65
2020/12/30 08:57:45;;;;;;;1.20;1.00;;;6.20;99.90;;;;;;5054181;28;20223;-65
2020/12/30 09:00:16;;;;;;;2.65;1.25;;;6.30;99.90;;;;;;5054890;28;20660;-65
2020/12/30 09:02:43;;;;;;;1.23;0.80;;;6.30;99.90;;;;;;5054304;28;20261;-65
2020/12/30 09:05:09;;;;;;;2.15;1.23;;;6.30;99.90;;;;;;5054525;28;20219;-65
2020/12/30 09:07:37;;;;;;;1.90;0.77;;;6.20;99.90;;;;;;5054087;28;20225;-65
2020/12/30 09:10:07;;;;;;;1.50;1.15;;;6.30;99.90;;;;;;5054576;28;20219;-65
2020/12/30 09:12:35;;;;;;;2.15;1.38;;;6.40;99.90;;;;;;5054164;28;20203;-65
2020/12/30 09:15:01;;;;;;;3.60;2.15;;;6.40;99.90;;;;;;5054305;28;20195;-65
2020/12/30 09:17:27;;;;;;;2.20;2.10;;;6.50;99.90;;;;;;5053863;28;20230;-65
2020/12/30 09:20:12;;;;;;;1.77;1.50;;;6.40;99.90;;;;;;5054790;28;20201;-65
2020/12/30 09:22:39;;;;;;;2.88;2.22;;;6.40;99.90;;;;;;5054049;28;20203;-65
2020/12/30 09:25:07;;;;;;;2.60;1.50;;;6.30;99.90;;;;;;5054500;28;20206;-65
2020/12/30 09:27:36;;;;;;;3.58;1.70;;;6.20;99.90;;;;;;5053353;28;20265;-65
2020/12/30 09:30:11;;;;;;;1.20;0.85;;;6.20;99.90;;;;;;5053988;28;20300;-65
2020/12/30 09:32:37;;;;;;;7.47;2.63;;;6.30;99.90;;;;;;5053993;28;20210;-65
2020/12/30 09:35:05;;;;;;;2.35;0.95;;;6.30;99.90;;;;;;5054124;28;20207;-65
2020/12/30 09:37:31;;;;;;;0.75;0.75;;;6.40;99.90;;;;;;5053387;28;20570;-65
2020/12/30 09:40:09;;;;;;;0.90;0.90;;;6.40;99.90;;;;;;5053776;28;20291;-65
2020/12/30 09:42:37;;;;;;;1.20;0.90;;;6.40;99.90;;;;;;5053940;28;20295;-65
2020/12/30 09:45:05;;;;;;;4.13;1.35;;;6.50;99.90;;;;;;5053992;28;20207;-65
2020/12/30 09:47:31;;;;;;;0.90;0.90;;;6.50;99.90;;;;;;5053420;28;20227;-65
2020/12/30 09:49:57;;;;;;;0.95;0.70;;;6.50;99.90;;;;;;5054309;28;20276;-65
2020/12/30 09:52:24;;;;;;;1.50;0.85;;;6.60;99.90;;;;;;5054033;28;20298;-65
2020/12/30 09:54:50;;;;;;;1.00;0.90;;;6.60;99.90;;;;;;5053317;28;20207;-65
2020/12/30 09:57:16;;;;;;;1.55;0.80;;;6.60;99.90;;;;;;5053332;28;20697;-65
2020/12/30 09:59:44;;;;;;;0.75;0.75;;;6.60;99.90;;;;;;5054027;28;20199;-65
2020/12/30 10:02:10;;;;;;;1.85;1.15;;;6.70;99.90;;;;;;5053950;28;20206;-65
2020/12/30 10:04:38;;;;;;;1.05;0.90;;;6.70;99.90;;;;;;5053891;28;20299;-65
2020/12/30 10:07:05;;;;;;;3.90;0.93;;;6.70;99.90;;;;;;5053240;28;20227;-65
2020/12/30 10:09:31;;;;;;;3.33;1.50;;;6.70;99.90;;;;;;5053359;28;20718;-66
2020/12/30 10:11:57;;;;;;;1.38;0.80;;;6.70;99.90;;;;;;5053556;28;20223;-65
2020/12/30 10:14:23;;;;;;;1.00;0.90;;;6.70;99.90;;;;;;5053715;28;20298;-65
2020/12/30 10:16:51;;;;;;;1.20;0.80;;;6.80;99.90;;;;;;5053118;28;20633;-65
2020/12/30 10:19:17;;;;;;;0.93;0.93;;;6.80;99.90;;;;;;5054129;28;20639;-66
2020/12/30 10:21:43;;;;;;;2.50;1.10;;;6.80;99.90;;;;;;5053420;28;20294;-66
2020/12/30 10:24:10;;;;;;;1.75;1.30;;;6.90;99.90;;;;;;5053523;28;20298;-65
2020/12/30 10:26:36;;;;;;;1.35;1.10;;;6.90;99.90;;;;;;5052917;28;20668;-66
2020/12/30 10:29:03;;;;;;;2.53;1.10;;;7.00;99.90;;;;;;5053514;28;20302;-65
2020/12/30 10:31:29;;;;;;;0.80;0.80;;;7.00;99.90;;;;;;5053638;28;20239;-66
2020/12/30 10:33:56;;;;;;;2.97;1.75;;;7.10;99.90;;;;;;5053614;28;20207;-66
2020/12/30 10:36:28;;;;;;;3.58;1.02;;;7.00;99.90;;;;;;5053106;28;20294;-66
2020/12/30 10:38:55;;;;;;;1.98;1.05;;;7.10;99.90;;;;;;5053069;28;20235;-66
2020/12/30 10:41:22;;;;;;;2.15;1.30;;;7.10;99.90;;;;;;5053262;28;20199;-66
2020/12/30 10:43:48;;;;;;;1.55;1.20;;;7.20;99.90;;;;;;5053435;28;20203;-66
2020/12/30 10:46:15;;;;;;;3.55;2.60;;;7.20;99.90;;;;;;5053193;28;20294;-66
2020/12/30 10:48:42;;;;;;;2.63;1.85;;;7.30;99.90;;;;;;5053108;28;20231;-65
2020/12/30 10:51:13;;;;;;;4.70;2.70;;;7.30;99.90;;;;;;5052751;28;20227;-66
2020/12/30 10:53:40;;;;;;;3.80;2.72;;;7.40;99.90;;;;;;5053004;28;20257;-66
2020/12/30 10:56:08;;;;;;;3.97;2.85;;;7.40;99.90;;;;;;5052963;28;20207;-66
2020/12/30 10:58:34;;;;;;;3.72;2.65;;;7.40;99.90;;;;;;5053280;28;20227;-66
2020/12/30 11:01:01;;;;;;;4.32;3.35;;;7.50;99.90;;;;;;5053401;28;20196;-65
2020/12/30 11:03:27;;;;;;;5.68;3.65;;;7.50;99.90;;;;;;5053066;28;20207;-66
2020/12/30 11:05:58;;;;;;;3.45;3.15;;;7.60;99.90;;;;;;5052613;28;20203;-66
2020/12/30 11:08:25;;;;;;;4.82;3.67;;;7.40;99.90;;;;;;5057014;28;20673;-66
2020/12/30 11:10:51;;;;;;;4.20;3.00;;;7.40;99.90;;;;;;5056822;28;20220;-66
2020/12/30 11:13:18;;;;;;;5.72;3.53;;;7.10;99.90;;;;;;5056208;28;20292;-66
2020/12/30 11:15:44;;;;;;;3.90;3.30;;;7.10;99.90;;;;;;5056696;28;20295;-66
2020/12/30 11:18:10;;;;;;;3.75;2.75;;;7.00;99.90;;;;;;5056550;28;20226;-65
2020/12/30 11:20:36;;;;;;;1.00;1.00;;;6.90;99.90;;;;;;5056592;28;20340;-66
2020/12/30 11:23:03;;;;;;;2.03;1.10;;;6.90;99.90;;;;;;5056633;28;20564;-66
2020/12/30 11:25:30;;;;;;;1.45;1.23;;;7.10;99.90;;;;;;5056440;28;20294;-67
2020/12/30 11:27:56;;;;;;;0.93;0.82;;;7.30;99.90;;;;;;5056081;28;20326;-66
2020/12/30 11:30:22;;;;;;;0.95;0.77;;;7.50;99.90;;;;;;5056156;28;20241;-66
2020/12/30 11:32:50;;;;;;;1.00;0.90;;;7.70;99.90;;;;;;5056048;28;20218;-66
2020/12/30 11:35:16;;;;;;;2.67;0.95;;;7.80;99.90;;;;;;5056307;28;20207;-65
2020/12/30 11:37:42;;;;;;;0.80;0.80;;;7.90;99.90;;;;;;5056098;28;20310;-66
2020/12/30 11:40:09;;;;;;;0.70;0.50;;;7.90;99.90;;;;;;5056365;28;20618;-66
2020/12/30 11:42:36;;;;;;;0.80;0.80;;;8.00;99.90;;;;;;5056369;28;20290;-66
2020/12/30 11:45:03;;;;;;;1.40;0.73;;;8.00;99.90;;;;;;5055956;28;20637;-66
2020/12/30 11:47:29;;;;;;;1.02;0.73;;;8.10;99.90;;;;;;5055896;28;20227;-66
2020/12/30 11:49:56;;;;;;;1.00;0.80;;;8.10;99.90;;;;;;5055527;28;20203;-66
2020/12/30 11:52:22;;;;;;;6.88;2.70;;;8.10;99.90;;;;;;5055936;28;20204;-68
2020/12/30 11:54:48;;;;;;;1.35;1.20;;;8.10;99.90;;;;;;5056201;28;20376;-70
2020/12/30 11:57:14;;;;;;;1.65;1.40;;;8.10;99.90;;;;;;5055595;28;20226;-68
2020/12/30 11:59:42;;;;;;;0.93;0.80;;;8.10;99.90;;;;;;5055742;28;20214;-71
2020/12/30 12:02:08;;;;;;;1.42;0.80;;;8.10;99.90;;;;;;5055654;28;20248;-72
2020/12/30 12:04:34;;;;;;;0.95;0.70;;;8.00;99.90;;;;;;5062274;28;20206;-72
2020/12/30 12:07:02;;;;;;;1.52;0.77;;;8.00;99.90;;;;;;5062679;28;20306;-72
2020/12/30 12:09:28;;;;;;;1.10;0.90;;;8.10;99.90;;;;;;5065803;28;20228;-72
2020/12/30 12:11:55;;;;;;;1.30;0.70;;;8.10;99.90;;;;;;5076482;28;20229;-73
2020/12/30 12:14:22;;;;;;;0.98;0.90;;;8.10;99.90;;;;;;5076241;28;20209;-73
2020/12/30 12:16:53;;;;;;;1.58;0.70;;;8.10;99.90;;;;;;5075885;28;20223;-73
2020/12/30 12:19:20;;;;;;;0.80;0.80;;;8.10;99.90;;;;;;5076664;28;20203;-73
2020/12/30 12:21:46;;;;;;;1.77;0.90;;;8.00;99.90;;;;;;5076065;28;20195;-73
2020/12/30 12:24:13;;;;;;;1.10;0.85;;;8.10;99.90;;;;;;5076005;28;20206;-73
2020/12/30 12:26:40;;;;;;;2.58;1.00;;;8.00;99.90;;;;;;5075023;28;20696;-73
2020/12/30 12:29:34;;;;;;;1.02;0.70;;;7.90;99.90;;;;;;5075336;28;20207;-73
2020/12/30 12:32:02;;;;;;;0.98;0.85;;;7.90;99.90;;;;;;5073089;28;20227;-73
2020/12/30 12:34:29;;;;;;;1.52;0.82;;;7.90;99.90;;;;;;5075701;28;20327;-73
2020/12/30 12:36:55;;;;;;;1.17;0.93;;;7.90;99.90;;;;;;5074906;28;20219;-73
2020/12/30 12:39:21;;;;;;;2.03;1.50;;;7.80;99.90;;;;;;5075356;28;20294;-73
2020/12/30 12:41:50;;;;;;;1.10;1.00;;;7.80;99.90;;;;;;5075272;28;20220;-73
2020/12/30 12:44:16;;;;;;;1.42;1.10;;;7.90;99.90;;;;;;5075453;28;20625;-73
2020/12/30 12:46:44;;;;;;;2.60;0.95;;;7.90;99.90;;;;;;5074941;28;20217;-73
2020/12/30 12:49:11;;;;;;;2.40;1.23;;;7.90;99.90;;;;;;5075495;28;20645;-73
2020/12/30 12:51:37;;;;;;;1.13;0.90;;;8.00;99.90;;;;;;5075011;28;20254;-73
2020/12/30 12:54:03;;;;;;;1.13;1.02;;;8.00;99.90;;;;;;5075343;28;20229;-73
2020/12/30 12:56:30;;;;;;;1.83;1.38;;;8.00;99.90;;;;;;5074634;28;20213;-73
2020/12/30 12:58:56;;;;;;;8.60;3.88;;;8.00;99.90;;;;;;5075461;28;20199;-73
2020/12/30 13:01:23;;;;;;;2.88;1.40;;;8.00;99.90;;;;;;5075270;28;20659;-73
2020/12/30 13:03:49;;;;;;;1.75;1.55;;;8.10;99.90;;;;;;5075342;28;20206;-74